aviador You're here:

VNKT Decoded Metar

KATHMANDU in NEPAL
Report Time2014-12-22 05:50:00
UTC Time2014-12-22 07:41:51
Flight Rules Old
Wind110° at 03 kt
W.Decomp.*RWY 02: 3.0 kt RCW
W.Rank110° ranks 17
Current wind is below 110° avg. (4.3)
Visibility6000 m
Phenomena:N/A
Clouds:Few 020 Hf
Expected CloudBase > 3,200 ft AGL from Temp-Dew spread
CeilingNone
Temp15°C (ISA +9)
Dew Point07°C (59% RH)
AAT13.2°C
QNH1020 hPa
Density Alt5,315 ft
Elevation4,386 ft
Report Wrong Elevation
Raw Report
METAR VNKT 220550Z 11003KT 6000 FEW020 15/07 Q1020 NOSIG=

Extra information for VNKT:More info

Metar Taf Metar & Taf Last 4 Metars F.Rules Stats Wind Profile Meteogram Temp Stats Airport Information Weather charts Add Link Nearby VenuesMetar ALERT Operation Metar Decoded Social comments